Phoenix, Arizona
Traffic Map
Current Weather Conditions
Phoenix, Arizona
Few Clouds
Few Clouds
96°
Feels Like: 96°
Wind Chill: 96° Ceiling: Unl
Heat Index: 96° Visibility: 10mi
Dew Point: 51° Wind: 8mph
Humidity: 22% Direction: 330° (NNW)
Pressure: 29.84in Gusts: 0mph
Raw Report DataKPHX 220151Z 33007KT 10SM FEW070 FEW190 36/11 A2984 RMK AO2 SLP084 OCNL LTGIC DSNT SE CB DSNT SE T03560106
Traffic Incident Summary
Active as of:
Severity:
Category:
InformationThere was an issue retrieving the traffic information for this location. Please try a different location or try again shortly.
Advertisements
Track Severe Weather on mobile